Time;durP1;ratioP1;P1;durP2;ratioP2;P2;SDS_P1;SDS_P2;PMS_P1;PMS_P2;Temp;Humidity;BMP_temperature;BMP_pressure;BME280_temperature;BME280_humidity;BME280_pressure;Samples;Min_cycle;Max_cycle;Signal;HPM_P1;HPM_P2
2023/10/18 10:32:23;;;;;;;;;;;;;;;;;;3810868;37;43974;-71
2023/10/18 10:35:17;;;;;;;;;;;;;;;;;;4373506;32;59659;-71
2023/10/18 10:38:18;;;;;;;;;;;;;;;;;;4389848;32;69464;-72
2023/10/18 10:41:19;;;;;;;;;;;;;;;;;;4363300;32;70290;-70
2023/10/18 10:44:21;;;;;;;;;;;;;;;;;;4375881;32;67738;-64
2023/10/18 10:47:32;;;;;;;;;;;;;;;;;;4386780;32;71650;-62
2023/10/18 10:50:42;;;;;;;;;;;;;;;;;;4361786;32;64757;-70
2023/10/18 10:53:45;;;;;;;;;;;;;;;;;;4393635;32;67409;-63
2023/10/18 10:56:31;;;;;;;;;;;;;;;;;;4397103;32;59661;-64
2023/10/18 10:59:19;;;;;;;;;;;;;;;;;;4383358;32;71581;-63
2023/10/18 11:02:06;;;;;;;;;;;;;;;;;;4360175;32;66841;-62
2023/10/18 11:04:57;;;;;;;;;;;;;;;;;;4351197;32;67819;-64
2023/10/18 11:07:44;;;;;;;;;;;;;;;;;;4353597;32;59199;-69
2023/10/18 11:10:39;;;;;;;;;;;;;;;;;;4362506;32;69947;-64
2023/10/18 11:13:26;;;;;;;;;;;;;;;;;;4360325;32;68552;-63
2023/10/18 11:16:12;;;;;;;;;;;;;;;;;;4356381;32;67074;-60
2023/10/18 11:19:00;;;;;;;;;;;;;;;;;;4354991;32;71911;-63
2023/10/18 11:21:51;;;;;;;;;;;;;;;;;;4364069;32;64855;-65
2023/10/18 11:24:41;;;;;;;;;;;;;;;;;;4360242;32;69494;-68
2023/10/18 11:27:33;;;;;;;;;;;;;;;;;;4345816;32;69013;-66
2023/10/18 11:30:23;;;;;;;;;;;;;;;;;;4359317;32;71019;-62
2023/10/18 11:33:15;;;;;;;;;;;;;;;;;;4363813;32;65973;-58
2023/10/18 11:36:02;;;;;;;;;;;;;;;;;;4371046;32;68502;-65
2023/10/18 11:41:53;;;;;;;;;;;;;;;;;;4358485;32;69885;-63
2023/10/18 11:44:40;;;;;;;;;;;;;;;;;;4351408;32;70711;-63
2023/10/18 11:47:26;;;;;;;;;;;;;;;;;;4364412;32;67649;-65
2023/10/18 11:50:13;;;;;;;;;;;;;;;;;;4346963;32;59190;-68
2023/10/18 11:53:07;;;;;;;;;;;;;;;;;;4347998;32;71002;-64
2023/10/18 11:55:57;;;;;;;;;;;;;;;;;;4339701;32;69369;-65
2023/10/18 11:58:58;;;;;;;;;;;;;;;;;;4338114;32;69525;-74
2023/10/18 12:01:45;;;;;;;;;;;;;;;;;;4338787;32;73091;-66
2023/10/18 12:04:38;;;;;;;;;;;;;;;;;;4349557;32;67148;-68
2023/10/18 12:07:24;;;;;;;;;;;;;;;;;;4351568;32;67232;-65
2023/10/18 12:10:17;;;;;;;;;;;;;;;;;;4346404;32;58921;-62
2023/10/18 12:13:06;;;;;;;;;;;;;;;;;;4355681;32;69751;-65
2023/10/18 12:15:53;;;;;;;;;;;;;;;;;;4349463;32;65322;-67
2023/10/18 12:18:40;;;;;;;;;;;;;;;;;;4358701;32;66884;-67
2023/10/18 12:21:29;;;;;;;;;;;;;;;;;;4364116;32;60002;-79
2023/10/18 12:24:16;;;;;;;;;;;;;;;;;;4331833;32;70460;-76
2023/10/18 12:31:26;;;;;;;;;;;;;;;;;;4345112;32;66848;-73
2023/10/18 12:33:34;;;;;;;;;;;;;;;;;;4335965;32;72262;-65
2023/10/18 12:36:23;;;;;;;;;;;;;;;;;;4349622;32;65028;-62
2023/10/18 12:39:09;;;;;;;;;;;;;;;;;;4332554;32;67947;-61
2023/10/18 12:41:56;;;;;;;;;;;;;;;;;;4350865;32;68054;-63
2023/10/18 12:44:46;;;;;;;;;;;;;;;;;;4325451;32;72556;-64
2023/10/18 12:47:32;;;;;;;;;;;;;;;;;;4352274;32;66600;-63
2023/10/18 12:50:19;;;;;;;;;;;;;;;;;;4348244;32;66636;-71
2023/10/18 12:59:22;;;;;;;;;;;;;;;;;;4359076;32;70017;-71
2023/10/18 13:02:11;;;;;;;;;;;;;;;;;;4362333;32;67113;-68
2023/10/18 13:04:59;;;;;;;;;;;;;;;;;;4338265;32;59521;-63
2023/10/18 13:07:52;;;;;;;;;;;;;;;;;;4349506;32;70906;-61
2023/10/18 13:10:38;;;;;;;;;;;;;;;;;;4347756;32;69014;-65
2023/10/18 13:13:30;;;;;;;;;;;;;;;;;;4340255;32;68907;-63
2023/10/18 13:16:16;;;;;;;;;;;;;;;;;;4342087;32;72240;-67
2023/10/18 13:19:06;;;;;;;;;;;;;;;;;;4355542;32;69281;-73
2023/10/18 13:21:52;;;;;;;;;;;;;;;;;;4349040;32;66186;-70
2023/10/18 13:24:41;;;;;;;;;;;;;;;;;;4342712;32;62015;-71
2023/10/18 13:27:36;;;;;;;;;;;;;;;;;;4328983;32;67897;-71
2023/10/18 13:30:32;;;;;;;;;;;;;;;;;;4329638;32;67293;-64
2023/10/18 13:33:18;;;;;;;;;;;;;;;;;;4337225;32;67083;-68
2023/10/18 13:36:13;;;;;;;;;;;;;;;;;;4338276;32;58705;-72
2023/10/18 13:39:00;;;;;;;;;;;;;;;;;;4343589;32;71532;-68
2023/10/18 13:41:47;;;;;;;;;;;;;;;;;;4339750;32;68734;-72
2023/10/18 13:44:33;;;;;;;;;;;;;;;;;;4343173;32;66852;-68
2023/10/18 13:47:20;;;;;;;;;;;;;;;;;;4356934;32;71834;-65
2023/10/18 13:50:15;;;;;;;;;;;;;;;;;;4350069;32;65828;-71
2023/10/18 13:53:04;;;;;;;;;;;;;;;;;;4318771;32;68148;-73
2023/10/18 13:55:55;;;;;;;;;;;;;;;;;;4346437;32;67913;-66
2023/10/18 13:58:42;;;;;;;;;;;;;;;;;;4362656;32;71484;-66
2023/10/18 14:01:30;;;;;;;;;;;;;;;;;;4358382;32;65273;-66
2023/10/18 14:04:25;;;;;;;;;;;;;;;;;;4325317;32;67265;-61
2023/10/18 14:07:11;;;;;;;;;;;;;;;;;;4348997;32;61132;-64
2023/10/18 14:09:58;;;;;;;;;;;;;;;;;;4357766;32;69310;-71
2023/10/18 14:12:44;;;;;;;;;;;;;;;;;;4332055;32;70477;-68
2023/10/18 14:15:30;;;;;;;;;;;;;;;;;;4354022;32;66569;-65
2023/10/18 14:18:17;;;;;;;;;;;;;;;;;;4342610;32;71653;-66
2023/10/18 14:21:12;;;;;;;;;;;;;;;;;;4346297;32;71090;-71
2023/10/18 14:24:05;;;;;;;;;;;;;;;;;;4360999;32;69754;-69
2023/10/18 14:26:52;;;;;;;;;;;;;;;;;;4354273;32;68068;-65
2023/10/18 14:29:38;;;;;;;;;;;;;;;;;;4335017;32;71462;-73
2023/10/18 14:32:25;;;;;;;;;;;;;;;;;;4317293;32;66935;-73
2023/10/18 14:35:12;;;;;;;;;;;;;;;;;;4302772;32;68837;-70
2023/10/18 14:38:06;;;;;;;;;;;;;;;;;;4320127;32;58713;-71
2023/10/18 14:40:52;;;;;;;;;;;;;;;;;;4310048;32;70691;-71
2023/10/18 14:43:42;;;;;;;;;;;;;;;;;;4307672;32;68786;-70
2023/10/18 14:46:29;;;;;;;;;;;;;;;;;;4312160;32;66608;-70
2023/10/18 14:49:16;;;;;;;;;;;;;;;;;;4322027;32;62417;-69
2023/10/18 14:52:10;;;;;;;;;;;;;;;;;;4321904;32;69143;-71
2023/10/18 14:54:57;;;;;;;;;;;;;;;;;;4329207;32;68438;-70
2023/10/18 14:57:44;;;;;;;;;;;;;;;;;;4322016;32;67480;-70
2023/10/18 15:00:30;;;;;;;;;;;;;;;;;;4323005;32;72041;-70
2023/10/18 15:03:22;;;;;;;;;;;;;;;;;;4328470;32;64744;-71
2023/10/18 15:06:09;;;;;;;;;;;;;;;;;;4326562;32;68071;-71
2023/10/18 15:08:57;;;;;;;;;;;;;;;;;;4308396;32;59714;-70
2023/10/18 15:11:44;;;;;;;;;;;;;;;;;;4308757;32;72905;-70
2023/10/18 15:14:32;;;;;;;;;;;;;;;;;;4334321;32;65318;-70
2023/10/18 15:17:19;;;;;;;;;;;;;;;;;;4317182;32;67417;-69
2023/10/18 15:20:06;;;;;;;;;;;;;;;;;;4339047;32;61084;-71
2023/10/18 15:22:52;;;;;;;;;;;;;;;;;;4329436;32;70083;-71
2023/10/18 15:25:39;;;;;;;;;;;;;;;;;;4313139;32;71156;-71
2023/10/18 15:28:26;;;;;;;;;;;;;;;;;;4331596;32;66829;-71
2023/10/18 15:31:14;;;;;;;;;;;;;;;;;;4337198;32;70083;-70
2023/10/18 15:34:01;;;;;;;;;;;;;;;;;;4336302;32;70405;-71
2023/10/18 15:36:47;;;;;;;;;;;;;;;;;;4343274;32;69091;-71
2023/10/18 15:39:33;;;;;;;;;;;;;;;;;;4345959;32;68240;-71
2023/10/18 15:42:23;;;;;;;;;;;;;;;;;;4328428;32;72893;-71
2023/10/18 15:45:13;;;;;;;;;;;;;;;;;;4341327;32;65917;-70
2023/10/18 15:47:59;;;;;;;;;;;;;;;;;;4335359;32;68076;-70
2023/10/18 15:50:46;;;;;;;;;;;;;;;;;;4332595;32;60039;-71
2023/10/18 15:53:32;;;;;;;;;;;;;;;;;;4344769;32;70132;-71
2023/10/18 15:56:21;;;;;;;;;;;;;;;;;;4337956;32;68688;-70
2023/10/18 15:59:08;;;;;;;;;;;;;;;;;;4349573;32;67976;-70
2023/10/18 16:01:54;;;;;;;;;;;;;;;;;;4326259;32;60218;-71
2023/10/18 16:04:45;;;;;;;;;;;;;;;;;;4343630;32;70381;-70
2023/10/18 16:07:31;;;;;;;;;;;;;;;;;;4347013;32;70075;-71
2023/10/18 16:10:18;;;;;;;;;;;;;;;;;;4339152;32;67750;-71
2023/10/18 16:13:04;;;;;;;;;;;;;;;;;;4341049;32;70372;-70
2023/10/18 16:15:57;;;;;;;;;;;;;;;;;;4335422;32;65618;-71
2023/10/18 16:18:43;;;;;;;;;;;;;;;;;;4339568;32;68938;-71
2023/10/18 16:21:30;;;;;;;;;;;;;;;;;;4338821;32;58633;-71
2023/10/18 16:24:18;;;;;;;;;;;;;;;;;;4323807;32;71688;-70
2023/10/18 16:27:04;;;;;;;;;;;;;;;;;;4337594;32;65207;-71
2023/10/18 16:29:50;;;;;;;;;;;;;;;;;;4345623;32;68550;-70
2023/10/18 16:32:38;;;;;;;;;;;;;;;;;;4328610;32;57672;-72
2023/10/18 16:35:24;;;;;;;;;;;;;;;;;;4346538;32;69515;-71
2023/10/18 16:38:11;;;;;;;;;;;;;;;;;;4338482;32;67968;-71
2023/10/18 16:41:01;;;;;;;;;;;;;;;;;;4336865;32;69107;-71
2023/10/18 16:43:48;;;;;;;;;;;;;;;;;;4325543;32;69876;-71
2023/10/18 16:46:34;;;;;;;;;;;;;;;;;;4339733;32;67835;-70
2023/10/18 16:49:21;;;;;;;;;;;;;;;;;;4348888;32;66810;-70
2023/10/18 16:52:09;;;;;;;;;;;;;;;;;;4341372;32;67531;-71
2023/10/18 16:54:55;;;;;;;;;;;;;;;;;;4335258;32;71206;-70
2023/10/18 16:57:42;;;;;;;;;;;;;;;;;;4337959;32;65917;-70
2023/10/18 17:00:29;;;;;;;;;;;;;;;;;;4347396;32;66766;-71
2023/10/18 17:03:16;;;;;;;;;;;;;;;;;;4343434;32;59067;-71
2023/10/18 17:06:04;;;;;;;;;;;;;;;;;;4336258;32;69785;-71
2023/10/18 17:08:51;;;;;;;;;;;;;;;;;;4344493;32;69732;-71
2023/10/18 17:11:37;;;;;;;;;;;;;;;;;;4340510;32;67686;-71
2023/10/18 17:14:24;;;;;;;;;;;;;;;;;;4323548;32;59670;-71
2023/10/18 17:17:11;;;;;;;;;;;;;;;;;;4344084;32;69102;-70
2023/10/18 17:19:57;;;;;;;;;;;;;;;;;;4325047;32;68379;-71
2023/10/18 17:22:44;;;;;;;;;;;;;;;;;;4321298;32;65599;-70
2023/10/18 17:25:30;;;;;;;;;;;;;;;;;;4323046;32;69895;-69
2023/10/18 17:28:18;;;;;;;;;;;;;;;;;;4348659;32;65316;-70
2023/10/18 17:31:04;;;;;;;;;;;;;;;;;;4341027;32;67504;-70
2023/10/18 17:33:51;;;;;;;;;;;;;;;;;;4339019;32;57871;-71
2023/10/18 17:36:37;;;;;;;;;;;;;;;;;;4332007;32;68005;-70
2023/10/18 17:39:25;;;;;;;;;;;;;;;;;;4340369;32;65365;-71
2023/10/18 17:42:11;;;;;;;;;;;;;;;;;;4341015;32;67632;-69
2023/10/18 17:44:58;;;;;;;;;;;;;;;;;;4327190;32;60616;-71
2023/10/18 17:47:45;;;;;;;;;;;;;;;;;;4335828;32;70771;-70
2023/10/18 17:50:34;;;;;;;;;;;;;;;;;;4325364;32;69650;-70
2023/10/18 17:53:21;;;;;;;;;;;;;;;;;;4353305;32;66989;-71
2023/10/18 17:56:07;;;;;;;;;;;;;;;;;;4336192;32;72652;-70
2023/10/18 17:58:53;;;;;;;;;;;;;;;;;;4352315;32;65250;-70
2023/10/18 18:01:45;;;;;;;;;;;;;;;;;;4345178;32;68431;-70
2023/10/18 18:04:33;;;;;;;;;;;;;;;;;;4348193;32;68165;-71
2023/10/18 18:07:19;;;;;;;;;;;;;;;;;;4338767;32;71837;-71
2023/10/18 18:10:10;;;;;;;;;;;;;;;;;;4357584;32;66485;-70
2023/10/18 18:13:00;;;;;;;;;;;;;;;;;;4332836;32;68352;-71
2023/10/18 18:15:50;;;;;;;;;;;;;;;;;;4337227;32;60027;-70
2023/10/18 18:18:36;;;;;;;;;;;;;;;;;;4331574;32;70539;-71
2023/10/18 18:21:23;;;;;;;;;;;;;;;;;;4342834;32;69537;-70
2023/10/18 18:24:09;;;;;;;;;;;;;;;;;;4336732;32;68612;-71
2023/10/18 18:26:56;;;;;;;;;;;;;;;;;;4355469;32;58686;-70
2023/10/18 18:29:42;;;;;;;;;;;;;;;;;;4325661;32;71718;-70
2023/10/18 18:32:29;;;;;;;;;;;;;;;;;;4337079;32;68168;-71
2023/10/18 18:35:16;;;;;;;;;;;;;;;;;;4326164;32;68909;-71
2023/10/18 18:38:03;;;;;;;;;;;;;;;;;;4335247;32;71709;-70
2023/10/18 18:40:49;;;;;;;;;;;;;;;;;;4341086;32;66155;-71
2023/10/18 18:43:36;;;;;;;;;;;;;;;;;;4334758;32;68114;-71
2023/10/18 18:46:23;;;;;;;;;;;;;;;;;;4336831;32;58699;-70
2023/10/18 18:49:09;;;;;;;;;;;;;;;;;;4336267;32;68958;-70
2023/10/18 18:51:56;;;;;;;;;;;;;;;;;;4357529;32;67688;-71
2023/10/18 18:54:43;;;;;;;;;;;;;;;;;;4339968;32;68261;-70
2023/10/18 18:57:29;;;;;;;;;;;;;;;;;;4322571;32;60204;-72
2023/10/18 19:00:16;;;;;;;;;;;;;;;;;;4338257;32;69992;-69
2023/10/18 19:03:03;;;;;;;;;;;;;;;;;;4342174;32;68860;-70
2023/10/18 19:05:50;;;;;;;;;;;;;;;;;;4335399;32;67649;-71
2023/10/18 19:08:36;;;;;;;;;;;;;;;;;;4339324;32;70780;-71
2023/10/18 19:11:28;;;;;;;;;;;;;;;;;;4340675;32;66214;-71
2023/10/18 19:14:17;;;;;;;;;;;;;;;;;;4338738;32;68124;-70
2023/10/18 19:17:04;;;;;;;;;;;;;;;;;;4348160;32;68903;-70
2023/10/18 19:19:50;;;;;;;;;;;;;;;;;;4328571;32;72821;-71
2023/10/18 19:22:37;;;;;;;;;;;;;;;;;;4345349;32;65516;-71
2023/10/18 19:25:24;;;;;;;;;;;;;;;;;;4341417;32;69213;-70
2023/10/18 19:28:10;;;;;;;;;;;;;;;;;;4344493;32;58727;-71
2023/10/18 19:30:57;;;;;;;;;;;;;;;;;;4342866;32;70791;-70
2023/10/18 19:34:04;;;;;;;;;;;;;;;;;;3802611;37;43842;-71
2023/10/18 19:36:52;;;;;;;;;;;;;;;;;;4356809;32;58876;-70
2023/10/18 19:39:38;;;;;;;;;;;;;;;;;;4366970;32;69555;-71
2023/10/18 19:42:24;;;;;;;;;;;;;;;;;;4363306;32;70553;-70
2023/10/18 19:45:15;;;;;;;;;;;;;;;;;;4376982;32;69733;-70
2023/10/18 19:48:02;;;;;;;;;;;;;;;;;;4367234;32;71204;-70
2023/10/18 19:50:48;;;;;;;;;;;;;;;;;;4375899;32;63734;-70
2023/10/18 19:53:37;;;;;;;;;;;;;;;;;;4368401;32;65357;-71
2023/10/18 19:56:23;;;;;;;;;;;;;;;;;;4345938;32;59904;-70
2023/10/18 19:59:10;;;;;;;;;;;;;;;;;;4382735;32;71706;-71
2023/10/18 20:01:56;;;;;;;;;;;;;;;;;;4343765;32;64326;-70
2023/10/18 20:04:43;;;;;;;;;;;;;;;;;;4353478;32;68411;-71
2023/10/18 20:07:29;;;;;;;;;;;;;;;;;;4356342;32;58708;-70
2023/10/18 20:10:16;;;;;;;;;;;;;;;;;;4357116;32;69085;-70
2023/10/18 20:13:03;;;;;;;;;;;;;;;;;;4346334;32;70849;-72
2023/10/18 20:15:49;;;;;;;;;;;;;;;;;;4362505;32;66747;-71
2023/10/18 20:18:35;;;;;;;;;;;;;;;;;;4375027;32;71188;-71
2023/10/18 20:21:22;;;;;;;;;;;;;;;;;;4366977;32;63958;-71
2023/10/18 20:24:08;;;;;;;;;;;;;;;;;;4355642;32;67845;-71
2023/10/18 20:26:55;;;;;;;;;;;;;;;;;;4364333;32;67848;-70
2023/10/18 20:29:41;;;;;;;;;;;;;;;;;;4352430;32;69558;-71
2023/10/18 20:32:28;;;;;;;;;;;;;;;;;;4355353;32;66342;-70
2023/10/18 20:35:14;;;;;;;;;;;;;;;;;;4364194;32;67789;-69
2023/10/18 20:38:01;;;;;;;;;;;;;;;;;;4354569;32;58973;-70
2023/10/18 20:40:47;;;;;;;;;;;;;;;;;;4376702;32;68899;-71
2023/10/18 20:43:36;;;;;;;;;;;;;;;;;;4366046;32;69565;-70
2023/10/18 20:46:22;;;;;;;;;;;;;;;;;;4342558;32;65492;-71
2023/10/18 20:49:09;;;;;;;;;;;;;;;;;;4357498;32;58531;-71
2023/10/18 20:51:58;;;;;;;;;;;;;;;;;;4352228;32;68538;-71
2023/10/18 20:54:48;;;;;;;;;;;;;;;;;;4354485;32;69414;-71
2023/10/18 20:57:36;;;;;;;;;;;;;;;;;;4356559;32;67314;-70
2023/10/18 21:03:02;;;;;;;;;;;;;;;;;;3815616;37;43907;-70
2023/10/18 21:05:50;;;;;;;;;;;;;;;;;;4343952;32;57050;-70
2023/10/18 21:08:37;;;;;;;;;;;;;;;;;;4350602;32;69394;-71
2023/10/18 21:11:26;;;;;;;;;;;;;;;;;;4354365;32;68942;-70
2023/10/18 21:14:15;;;;;;;;;;;;;;;;;;4360248;32;66970;-70
2023/10/18 21:17:01;;;;;;;;;;;;;;;;;;4370212;32;73573;-69
2023/10/18 21:19:48;;;;;;;;;;;;;;;;;;4366955;32;66380;-70
2023/10/18 21:25:19;;;;;;;;;;;;;;;;;;3830065;37;44468;-70
2023/10/18 21:28:07;;;;;;;;;;;;;;;;;;4368639;32;58673;-70
2023/10/18 21:30:58;;;;;;;;;;;;;;;;;;4373605;32;69004;-70
2023/10/18 21:33:44;;;;;;;;;;;;;;;;;;4371856;32;69635;-70
2023/10/18 21:36:31;;;;;;;;;;;;;;;;;;4358500;32;66696;-70
2023/10/18 21:39:18;;;;;;;;;;;;;;;;;;4369345;32;70576;-70
2023/10/18 21:42:07;;;;;;;;;;;;;;;;;;4391940;32;65443;-71
2023/10/18 21:44:53;;;;;;;;;;;;;;;;;;4375255;32;66829;-70
2023/10/18 21:47:40;;;;;;;;;;;;;;;;;;4366679;32;59507;-69
2023/10/18 21:50:27;;;;;;;;;;;;;;;;;;4370662;32;71226;-70
2023/10/18 21:53:13;;;;;;;;;;;;;;;;;;4372655;32;65457;-70
2023/10/18 21:56:02;;;;;;;;;;;;;;;;;;4367783;32;67774;-70
2023/10/18 21:58:51;;;;;;;;;;;;;;;;;;4374873;32;58283;-70
2023/10/18 22:04:26;;;;;;;;;;;;;;;;;;4377663;32;68413;-70
2023/10/18 22:07:14;;;;;;;;;;;;;;;;;;4377943;32;67965;-70
2023/10/18 22:10:01;;;;;;;;;;;;;;;;;;4382125;32;71563;-70
2023/10/18 22:12:55;;;;;;;;;;;;;;;;;;4377987;32;65390;-70
2023/10/18 22:15:47;;;;;;;;;;;;;;;;;;4369286;32;69503;-71
2023/10/18 22:18:50;;;;;;;;;;;;;;;;;;4356833;32;65712;-70
2023/10/18 22:21:37;;;;;;;;;;;;;;;;;;4392916;32;71530;-71
2023/10/18 22:24:27;;;;;;;;;;;;;;;;;;4355419;32;63743;-70
2023/10/18 22:27:14;;;;;;;;;;;;;;;;;;4365054;32;67113;-70
2023/10/18 22:30:07;;;;;;;;;;;;;;;;;;4365738;32;59261;-70
2023/10/18 22:32:54;;;;;;;;;;;;;;;;;;4376878;32;69398;-70
2023/10/18 22:35:52;;;;;;;;;;;;;;;;;;4366008;32;67987;-71
2023/10/18 22:38:39;;;;;;;;;;;;;;;;;;4345735;32;67583;-70
2023/10/18 22:41:37;;;;;;;;;;;;;;;;;;4364573;32;59007;-70
2023/10/18 22:44:32;;;;;;;;;;;;;;;;;;4354159;32;68126;-69
2023/10/18 22:47:27;;;;;;;;;;;;;;;;;;4364308;32;68815;-71
2023/10/18 22:53:19;;;;;;;;;;;;;;;;;;4375729;32;72439;-71
2023/10/18 22:56:10;;;;;;;;;;;;;;;;;;4345696;32;64461;-70
2023/10/18 22:58:59;;;;;;;;;;;;;;;;;;4376321;32;66614;-70
2023/10/18 23:01:46;;;;;;;;;;;;;;;;;;4346029;32;59263;-70
2023/10/18 23:04:36;;;;;;;;;;;;;;;;;;4353696;32;71010;-71
2023/10/18 23:07:32;;;;;;;;;;;;;;;;;;4361292;32;65186;-71
2023/10/18 23:10:23;;;;;;;;;;;;;;;;;;4350105;32;66572;-70
2023/10/18 23:22:19;;;;;;;;;;;;;;;;;;4343090;32;66220;-69
2023/10/18 23:28:27;;;;;;;;;;;;;;;;;;4353291;32;66537;-71
2023/10/18 23:31:14;;;;;;;;;;;;;;;;;;4389974;32;67087;-70
2023/10/18 23:34:17;;;;;;;;;;;;;;;;;;4358031;32;67050;-71
2023/10/18 23:39:53;;;;;;;;;;;;;;;;;;4367080;32;67259;-71
2023/10/18 23:42:50;;;;;;;;;;;;;;;;;;4375523;32;68113;-71
2023/10/18 23:45:40;;;;;;;;;;;;;;;;;;4371992;32;58310;-71
2023/10/18 23:51:34;;;;;;;;;;;;;;;;;;4370286;32;68576;-70
2023/10/18 23:54:21;;;;;;;;;;;;;;;;;;4348064;32;66747;-71
2023/10/18 23:57:14;;;;;;;;;;;;;;;;;;4363795;32;59649;-70
